Latest Weather Observations for Grove

IDT60901

Issued at 4:21 pm EST Wednesday 5 August 2015 (issued every 10 minutes, with the page automatically refreshed every 10 minutes)

About weather observations | Map of Hobart area stations | Latest observations for Hobart area | Other Formats
Station Details ID: 094220 Name: GROVE (RESEARCH STATION) Lat: -42.99 Lon: 147.07 Height: 65.0 m
Data from the previous 72 hours. | See also: Recent months at Grove
Date/Time
EST
Tmp

°C
App
Tmp
°C
Dew
Point
°C
Rel
Hum
%
Delta-T

°C
Wind Press
QNH
hPa
Press
MSL
hPa
Rain
since
9 am
mm
Dir
 
Spd
km/h
Gust
km/h
Spd
kts
Gust
kts
05/04:00pm 3.3 -0.2 1.5 88 0.7 W 9 15 5 8 - - 5.0
05/03:30pm 4.4 -0.7 0.8 77 1.4 WSW 17 24 9 13 - - 5.0
05/03:00pm 3.9 1.1 1.9 87 0.8 SW 6 9 3 5 - - 5.0
05/02:30pm 3.8 0.5 2.6 92 0.5 W 9 13 5 7 - - 5.0
05/02:00pm 3.7 -0.5 1.7 87 0.8 SW 13 20 7 11 - - 3.0
05/01:30pm 4.8 1.3 1.2 77 1.4 WSW 9 13 5 7 - - 2.6
05/01:00pm 3.7 -1.0 1.1 83 1.0 WSW 15 24 8 13 - - 2.6
05/12:30pm 4.8 1.0 1.8 81 1.2 WSW 11 17 6 9 - - 2.4
05/12:00pm 3.2 -1.0 1.7 90 0.6 SW 13 30 7 16 - - 2.0
05/11:30am 3.1 -0.6 2.1 93 0.4 SSW 11 15 6 8 - - 1.6
05/11:00am 4.0 0.2 2.0 87 0.8 SW 11 13 6 7 - - 1.4
05/10:30am 2.7 -0.4 1.4 91 0.5 WSW 7 11 4 6 - - 1.4
05/10:00am 2.9 -0.6 1.3 89 0.6 SSW 9 13 5 7 - - 0.4
05/09:30am 3.1 -1.6 0.7 84 0.9 W 15 26 8 14 - - 0.4
05/09:00am 2.9 -3.3 -0.1 81 1.1 WSW 22 37 12 20 - - 16.0
05/08:30am 1.8 -1.5 0.2 89 0.6 SW 7 9 4 5 - - 15.6
05/08:00am 0.8 -2.0 -0.3 92 0.4 ENE 4 13 2 7 - - 15.6
05/07:30am 0.4 - - - - NNE 7 9 4 5 - - 15.6
05/07:00am 0.6 - - - - NNW 4 7 2 4 - - 15.6
05/06:30am 1.3 -1.9 -0.4 88 0.6 SW 6 9 3 5 - - 15.6
05/06:00am 1.8 -2.4 -1.0 82 1.0 WSW 11 17 6 9 - - 15.6
05/05:30am 1.3 -3.2 -0.6 87 0.7 SW 13 19 7 10 - - 15.6
05/05:00am 1.6 -2.6 -0.9 83 0.9 SW 11 17 6 9 - - 15.6
05/04:30am 2.7 -2.9 -3.2 65 2.0 WSW 17 35 9 19 - - 15.6
05/04:00am 1.5 -3.0 -0.4 87 0.7 SW 13 28 7 15 - - 15.6
05/03:30am 2.1 -2.5 -0.7 82 1.0 SW 13 28 7 15 - - 15.6
05/03:00am 2.5 -4.5 -0.5 80 1.1 WSW 26 46 14 25 - - 15.6
05/02:53am 2.6 -4.8 -0.4 80 1.1 WSW 28 48 15 26 - - 15.6
05/02:30am 2.0 -3.2 0.4 89 0.6 WSW 17 26 9 14 - - 15.4
05/02:00am 2.8 -5.5 -0.2 81 1.1 WSW 33 56 18 30 - - 14.8
05/01:56am 3.2 -4.2 -0.6 76 1.4 SW 28 56 15 30 - - 14.8
05/01:30am 3.8 -2.5 -0.8 72 1.7 WSW 22 37 12 20 - - 14.8
05/01:10am 4.2 -3.2 -0.6 71 1.8 WSW 28 48 15 26 - - 14.8
05/01:00am 3.9 -1.7 1.1 82 1.1 WSW 20 43 11 23 - - 14.8
05/12:30am 4.1 0.0 2.4 89 0.7 SW 13 22 7 12 - - 14.2
05/12:00am 4.6 0.1 2.1 84 1.0 W 15 24 8 13 - - 13.8
 
Date/Time
EST
Tmp

°C
App
Tmp
°C
Dew
Point
°C
Rel
Hum
%
Delta-T

°C
Wind Press
QNH
hPa
Press
MSL
hPa
Rain
since
9 am
mm
Dir
 
Spd
km/h
Gust
km/h
Spd
kts
Gust
kts
04/11:30pm 6.0 -0.1 0.1 66 2.3 W 22 35 12 19 - - 13.2
04/11:05pm 6.1 -1.1 0.8 69 2.1 W 28 50 15 27 - - 13.2
04/11:00pm 6.2 -0.2 0.9 69 2.1 W 24 50 13 27 - - 13.0
04/10:53pm 6.0 -1.5 1.2 71 1.9 W 30 48 16 26 - - 13.0
04/10:30pm 5.6 2.3 2.4 80 1.3 WNW 9 35 5 19 - - 12.8
04/10:17pm 6.0 -1.4 2.1 76 1.6 W 30 48 16 26 - - 12.8
04/10:14pm 6.2 -2.2 1.7 73 1.8 W 35 48 19 26 - - 12.8
04/10:00pm 5.9 1.3 1.4 73 1.8 W 15 24 8 13 - - 12.6
04/09:30pm 5.9 0.6 1.7 74 1.7 W 19 33 10 18 - - 12.2
04/09:00pm 5.5 1.4 2.3 80 1.3 W 13 26 7 14 - - 11.8
04/08:30pm 5.8 1.8 2.9 82 1.2 W 13 22 7 12 - - 9.6
04/08:00pm 5.7 2.0 2.5 80 1.3 NW 11 19 6 10 - - 9.0
04/07:30pm 5.7 3.2 4.5 92 0.5 WSW 7 11 4 6 - - 7.8
04/07:00pm 6.2 3.6 4.3 88 0.8 WNW 7 13 4 7 - - 6.6
04/06:30pm 6.8 3.8 4.3 84 1.1 WSW 9 15 5 8 - - 3.4
04/06:00pm 7.9 3.2 3.2 72 2.0 NW 17 28 9 15 - - 0.8
04/05:30pm 8.4 4.6 1.9 63 2.7 NW 11 24 6 13 - - 0.0
04/05:00pm 8.8 4.6 1.8 61 2.9 NNW 13 24 7 13 - - 0.0
04/04:30pm 9.0 3.5 1.8 60 3.0 NNW 20 39 11 21 - - 0.0
04/04:00pm 9.2 4.3 2.1 61 3.0 NW 17 37 9 20 - - 0.0
04/03:30pm 9.5 4.6 1.9 59 3.2 NW 17 32 9 17 - - 0.0
04/03:00pm 9.7 3.8 1.8 58 3.3 WNW 22 43 12 23 - - 0.0
04/02:30pm 9.5 4.3 2.4 61 3.0 WNW 19 32 10 17 - - 0.0
04/02:00pm 9.9 3.7 2.1 58 3.3 NW 24 37 13 20 - - 0.0
04/01:30pm 9.4 2.7 1.7 58 3.2 NW 26 41 14 22 - - 0.0
04/01:00pm 10.2 3.6 1.9 56 3.5 NNW 26 43 14 23 - - 0.0
04/12:30pm 9.7 4.7 1.5 56 3.4 N 17 33 9 18 - - 0.0
04/12:00pm 9.4 4.9 2.3 61 3.0 N 15 24 8 13 - - 0.0
04/11:30am 8.5 3.1 1.4 61 2.9 N 19 28 10 15 - - 0.0
04/11:00am 9.1 4.1 1.6 59 3.1 N 17 28 9 15 - - 0.0
04/10:30am 9.1 3.5 1.3 58 3.2 NW 20 37 11 20 - - 0.0
04/10:00am 7.7 2.2 0.4 60 2.9 WNW 19 33 10 18 - - 0.0
04/09:30am 7.2 2.4 0.4 62 2.7 WNW 15 28 8 15 - - 0.0
04/09:00am 7.1 2.3 -0.1 60 2.8 W 15 24 8 13 - - 7.4
04/08:30am 6.5 1.7 0.1 63 2.5 W 15 22 8 12 - - 7.4
04/08:00am 6.1 2.0 -0.4 63 2.5 W 11 28 6 15 - - 7.4
04/07:30am 5.8 1.6 -0.8 62 2.5 WNW 11 19 6 10 - - 7.4
04/07:00am 4.2 0.8 -0.6 71 1.8 ENE 7 15 4 8 - - 7.4
04/06:30am 4.9 1.4 -1.3 64 2.3 NE 7 13 4 7 - - 7.4
04/06:00am 5.0 0.0 -1.2 64 2.3 NNE 15 22 8 12 - - 7.4
04/05:30am 4.9 -0.9 -1.7 62 2.4 NNE 19 22 10 12 - - 7.4
04/05:00am 4.6 1.1 -1.7 63 2.3 N 7 15 4 8 - - 7.4
04/04:30am 4.1 -0.2 -1.4 67 2.0 NE 11 17 6 9 - - 7.4
04/04:00am 3.7 0.3 -0.9 72 1.7 N 7 11 4 6 - - 7.4
04/03:30am 1.0 -1.7 0.2 94 0.3 W 4 13 2 7 - - 7.4
04/03:00am 0.4 - - - - WSW 6 9 3 5 - - 7.4
04/02:30am 0.3 - - - - SE 4 7 2 4 - - 7.4
04/02:00am -0.1 - - - - NNE 6 9 3 5 - - 7.4
04/01:30am -0.1 - - - - SW 4 7 2 4 - - 7.4
04/01:00am -0.1 - - - - N 4 7 2 4 - - 7.4
04/12:30am 0.0 - - - - CALM 0 0 0 0 - - 7.4
04/12:00am 0.1 - - - - NNE 6 7 3 4 - - 7.4
 
Date/Time
EST
Tmp

°C
App
Tmp
°C
Dew
Point
°C
Rel
Hum
%
Delta-T

°C
Wind Press
QNH
hPa
Press
MSL
hPa
Rain
since
9 am
mm
Dir
 
Spd
km/h
Gust
km/h
Spd
kts
Gust
kts
03/11:30pm 0.0 - - - - NE 6 7 3 4 - - 7.4
03/11:00pm 0.1 - - - - CALM 0 0 0 0 - - 7.4
03/10:30pm -0.2 - - - - CALM 0 0 0 0 - - 7.4
03/10:00pm 0.4 -1.5 0.4 100 0.0 CALM 0 0 0 0 - - 7.4
03/09:30pm 1.3 -0.5 1.0 98 0.1 CALM 0 0 0 0 - - 7.4
03/09:00pm 1.9 -1.6 1.4 96 0.2 ENE 9 13 5 7 - - 7.4
03/08:30pm 2.5 -0.9 2.0 96 0.2 E 9 13 5 7 - - 7.4
03/08:00pm 2.5 -0.3 2.0 96 0.2 W 6 9 3 5 - - 7.4
03/07:30pm 2.7 0.3 2.2 96 0.2 ESE 4 6 2 3 - - 7.4
03/07:00pm 2.9 0.8 1.9 93 0.4 N 2 7 1 4 - - 7.4
03/06:30pm 3.1 0.2 1.6 90 0.6 SSW 6 13 3 7 - - 7.4
03/06:00pm 3.4 -0.1 1.1 85 0.9 S 9 13 5 7 - - 7.0
03/05:30pm 4.0 -1.1 0.6 78 1.3 W 17 26 9 14 - - 7.0
03/05:00pm 3.8 -0.9 0.9 81 1.1 W 15 28 8 15 - - 7.0
03/04:30pm 4.4 -0.6 1.3 80 1.2 W 17 28 9 15 - - 7.0
03/04:00pm 4.9 -0.8 0.8 75 1.6 W 20 35 11 19 - - 7.0
03/03:30pm 4.1 -0.9 1.6 84 1.0 WSW 17 26 9 14 - - 7.0
03/03:00pm 3.7 -1.2 1.9 88 0.7 W 17 28 9 15 - - 6.6
03/02:30pm 3.5 -1.5 1.4 86 0.8 W 17 28 9 15 - - 6.0
03/02:00pm 3.6 -0.6 1.6 87 0.8 WSW 13 20 7 11 - - 5.4
03/01:30pm 3.2 -1.8 1.4 88 0.7 WSW 17 26 9 14 - - 4.2
03/01:00pm 3.8 -0.5 0.7 80 1.2 WSW 13 24 7 13 - - 3.8
03/12:30pm 4.3 -0.5 0.4 76 1.5 W 15 26 8 14 - - 3.8
03/12:00pm 4.3 -0.4 0.7 77 1.4 WSW 15 20 8 11 - - 3.8
03/11:30am 3.2 -2.1 -0.3 78 1.3 WSW 17 26 9 14 - - 3.6
03/11:00am 3.0 -0.2 0.9 86 0.8 SSW 7 13 4 7 - - 3.6
03/10:30am 2.3 -0.4 0.1 85 0.8 N 4 13 2 7 - - 3.4
03/10:00am 1.6 -2.4 0.2 90 0.5 E 11 11 6 6 - - 2.8
03/09:30am 1.7 -2.1 -0.5 85 0.8 SSW 9 15 5 8 - - 1.0
03/09:00am 2.2 -1.6 -0.8 80 1.1 WSW 9 26 5 14 - - 17.4
03/08:30am 1.3 -2.1 -0.6 87 0.7 SSW 7 15 4 8 - - 17.0
03/08:00am 0.8 -2.4 -0.3 92 0.4 S 6 13 3 7 - - 17.0
03/07:30am 1.5 -2.4 -1.3 82 1.0 SW 9 17 5 9 - - 17.0
03/07:00am 0.8 - - - - SSW 7 19 4 10 - - 17.0
03/06:30am 0.4 - - - - SSW 9 13 5 7 - - 17.0
03/06:00am 0.3 - - - - E 9 15 5 8 - - 17.0
03/05:30am 0.4 - - - - WSW 9 17 5 9 - - 17.0
03/05:00am 0.6 - - - - WSW 4 9 2 5 - - 17.0
03/04:30am 0.9 -3.6 -0.2 92 0.4 WSW 13 20 7 11 - - 16.8
03/04:00am 0.6 -2.7 0.0 96 0.2 SW 7 17 4 9 - - 16.8
03/03:30am 0.7 -3.8 -0.1 94 0.3 WSW 13 20 7 11 - - 16.6
03/03:00am 1.8 -1.5 -0.1 87 0.7 W 7 11 4 6 - - 16.6
03/02:30am 2.3 -1.8 -0.1 84 0.9 WSW 11 20 6 11 - - 16.0
03/02:00am 1.5 -2.1 0.4 92 0.4 WNW 9 15 5 8 - - 15.8
03/01:30am 2.6 -1.1 -0.1 82 1.0 WSW 9 15 5 8 - - 14.4
03/01:00am 2.4 -2.4 0.0 84 0.9 W 15 20 8 11 - - 14.0
03/12:30am 0.8 -1.5 0.3 96 0.2 SE 2 6 1 3 - - 13.8
03/12:00am 0.5 -3.2 0.2 98 0.1 NE 9 13 5 7 - - 13.6
 
Date/Time
EST
Tmp

°C
App
Tmp
°C
Dew
Point
°C
Rel
Hum
%
Delta-T

°C
Wind Press
QNH
hPa
Press
MSL
hPa
Rain
since
9 am
mm
Dir
 
Spd
km/h
Gust
km/h
Spd
kts
Gust
kts
02/11:30pm 0.5 -2.8 0.2 98 0.1 NNE 7 9 4 5 - - 13.6
02/11:00pm 0.8 -1.5 0.3 96 0.2 NNE 2 9 1 5 - - 12.4
02/10:30pm 1.2 -2.0 0.7 96 0.2 WSW 7 13 4 7 - - 10.4
02/10:00pm 1.8 -1.2 0.7 92 0.4 N 6 11 3 6 - - 9.2
02/09:30pm 3.5 -1.2 0.6 81 1.1 NNW 15 22 8 12 - - 6.2
02/09:00pm 4.2 -1.6 -0.3 72 1.7 N 20 32 11 17 - - 6.0
02/08:30pm 4.2 0.1 -0.3 72 1.7 N 11 26 6 14 - - 6.0
02/08:00pm 4.0 0.6 -0.3 73 1.6 NNW 7 13 4 7 - - 6.0
02/07:30pm 3.3 0.4 1.2 86 0.8 N 6 11 3 6 - - 6.0
02/07:00pm 3.5 0.6 1.2 85 0.9 SW 6 9 3 5 - - 6.0
02/06:30pm 4.4 -0.2 -0.7 69 1.9 NNW 13 22 7 12 - - 5.6
02/06:00pm 3.3 0.0 0.4 81 1.1 SW 7 13 4 7 - - 5.6
02/05:30pm 4.3 -1.4 -1.1 68 2.0 WSW 19 32 10 17 - - 5.2
02/05:00pm 4.2 -1.5 -0.9 69 1.9 WSW 19 28 10 15 - - 5.2
02/04:30pm 4.6 -1.4 -1.7 63 2.3 W 20 39 11 21 - - 5.2

Latest Capital City Observations: Canberra | Sydney | Melbourne | Brisbane | Adelaide | Perth | Hobart | Darwin

Other Formats:

Comma delimited format used in spreadsheet applications
http://www.bom.gov.au/fwo/IDT60901/IDT60901.95977.axf

JavaScript Object Notation format (JSON) in row-major order
http://www.bom.gov.au/fwo/IDT60901/IDT60901.95977.json